sensor_id;sensor_type;location;lat;lon;timestamp;P1;durP1;ratioP1;P2;durP2;ratioP2
1404;SDS011;697;51.114;6.542;2022-10-16T00:00:31;1.93;;;1.30;;
1404;SDS011;697;51.114;6.542;2022-10-16T00:02:59;3.30;;;1.30;;
1404;SDS011;697;51.114;6.542;2022-10-16T00:05:26;5.30;;;1.50;;
1404;SDS011;697;51.114;6.542;2022-10-16T00:07:53;2.27;;;1.30;;
1404;SDS011;697;51.114;6.542;2022-10-16T00:10:20;2.23;;;1.23;;
1404;SDS011;697;51.114;6.542;2022-10-16T00:12:47;1.43;;;0.93;;
1404;SDS011;697;51.114;6.542;2022-10-16T00:15:13;1.33;;;1.23;;
1404;SDS011;697;51.114;6.542;2022-10-16T00:17:40;4.93;;;1.30;;
1404;SDS011;697;51.114;6.542;2022-10-16T00:20:09;3.93;;;1.33;;
1404;SDS011;697;51.114;6.542;2022-10-16T00:22:35;1.23;;;0.90;;
1404;SDS011;697;51.114;6.542;2022-10-16T00:25:02;4.87;;;1.40;;
1404;SDS011;697;51.114;6.542;2022-10-16T00:27:29;6.43;;;1.30;;
1404;SDS011;697;51.114;6.542;2022-10-16T00:29:56;3.80;;;1.60;;
1404;SDS011;697;51.114;6.542;2022-10-16T00:32:23;8.33;;;1.47;;
1404;SDS011;697;51.114;6.542;2022-10-16T00:34:50;4.20;;;1.60;;
1404;SDS011;697;51.114;6.542;2022-10-16T00:37:19;3.10;;;1.57;;
1404;SDS011;697;51.114;6.542;2022-10-16T00:39:46;5.03;;;1.40;;
1404;SDS011;697;51.114;6.542;2022-10-16T00:42:14;1.30;;;1.10;;
1404;SDS011;697;51.114;6.542;2022-10-16T00:44:44;2.50;;;1.30;;
1404;SDS011;697;51.114;6.542;2022-10-16T00:47:16;2.57;;;1.13;;
1404;SDS011;697;51.114;6.542;2022-10-16T00:49:47;1.73;;;1.20;;
1404;SDS011;697;51.114;6.542;2022-10-16T00:52:16;2.67;;;1.27;;
1404;SDS011;697;51.114;6.542;2022-10-16T00:54:45;3.50;;;1.30;;
1404;SDS011;697;51.114;6.542;2022-10-16T00:57:13;2.63;;;1.80;;
1404;SDS011;697;51.114;6.542;2022-10-16T00:59:40;5.10;;;1.50;;
1404;SDS011;697;51.114;6.542;2022-10-16T01:02:11;3.50;;;1.43;;
1404;SDS011;697;51.114;6.542;2022-10-16T01:04:40;2.20;;;1.20;;
1404;SDS011;697;51.114;6.542;2022-10-16T01:07:12;3.30;;;1.63;;
1404;SDS011;697;51.114;6.542;2022-10-16T01:09:52;1.20;;;0.90;;
1404;SDS011;697;51.114;6.542;2022-10-16T01:12:28;2.53;;;1.47;;
1404;SDS011;697;51.114;6.542;2022-10-16T01:15:03;4.20;;;1.10;;
1404;SDS011;697;51.114;6.542;2022-10-16T01:17:37;5.87;;;1.20;;
1404;SDS011;697;51.114;6.542;2022-10-16T01:20:10;5.07;;;1.40;;
1404;SDS011;697;51.114;6.542;2022-10-16T01:22:46;5.60;;;1.37;;
1404;SDS011;697;51.114;6.542;2022-10-16T01:25:25;1.77;;;1.30;;
1404;SDS011;697;51.114;6.542;2022-10-16T01:28:00;2.73;;;1.20;;
1404;SDS011;697;51.114;6.542;2022-10-16T01:30:29;1.70;;;1.20;;
1404;SDS011;697;51.114;6.542;2022-10-16T01:32:59;2.87;;;1.20;;
1404;SDS011;697;51.114;6.542;2022-10-16T01:35:30;5.33;;;1.10;;
1404;SDS011;697;51.114;6.542;2022-10-16T01:38:01;2.80;;;1.30;;
1404;SDS011;697;51.114;6.542;2022-10-16T01:40:32;3.43;;;1.33;;
1404;SDS011;697;51.114;6.542;2022-10-16T01:43:04;1.27;;;1.17;;
1404;SDS011;697;51.114;6.542;2022-10-16T01:45:34;3.63;;;1.00;;
1404;SDS011;697;51.114;6.542;2022-10-16T01:48:02;3.03;;;1.30;;
1404;SDS011;697;51.114;6.542;2022-10-16T01:50:33;1.37;;;1.10;;
1404;SDS011;697;51.114;6.542;2022-10-16T01:53:04;4.50;;;1.30;;
1404;SDS011;697;51.114;6.542;2022-10-16T01:55:33;4.20;;;1.30;;
1404;SDS011;697;51.114;6.542;2022-10-16T01:58:07;1.13;;;1.03;;
1404;SDS011;697;51.114;6.542;2022-10-16T02:00:36;2.60;;;1.33;;
1404;SDS011;697;51.114;6.542;2022-10-16T02:03:04;1.57;;;0.90;;
1404;SDS011;697;51.114;6.542;2022-10-16T02:05:32;0.90;;;0.90;;
1404;SDS011;697;51.114;6.542;2022-10-16T02:08:03;4.43;;;1.10;;
1404;SDS011;697;51.114;6.542;2022-10-16T02:10:30;5.77;;;1.10;;
1404;SDS011;697;51.114;6.542;2022-10-16T02:12:59;1.23;;;1.13;;
1404;SDS011;697;51.114;6.542;2022-10-16T02:15:31;2.50;;;1.00;;
1404;SDS011;697;51.114;6.542;2022-10-16T02:17:58;2.07;;;1.67;;
1404;SDS011;697;51.114;6.542;2022-10-16T02:20:26;1.53;;;0.97;;
1404;SDS011;697;51.114;6.542;2022-10-16T02:22:58;1.33;;;0.70;;
1404;SDS011;697;51.114;6.542;2022-10-16T02:25:27;1.13;;;0.70;;
1404;SDS011;697;51.114;6.542;2022-10-16T02:27:58;1.70;;;0.90;;
1404;SDS011;697;51.114;6.542;2022-10-16T02:30:29;1.63;;;0.60;;
1404;SDS011;697;51.114;6.542;2022-10-16T02:33:00;5.63;;;0.87;;
1404;SDS011;697;51.114;6.542;2022-10-16T02:35:31;2.77;;;0.97;;
1404;SDS011;697;51.114;6.542;2022-10-16T02:37:58;1.20;;;1.00;;
1404;SDS011;697;51.114;6.542;2022-10-16T02:40:25;2.00;;;0.87;;
1404;SDS011;697;51.114;6.542;2022-10-16T02:42:53;2.53;;;0.60;;
1404;SDS011;697;51.114;6.542;2022-10-16T02:45:21;1.57;;;1.17;;
1404;SDS011;697;51.114;6.542;2022-10-16T02:47:50;5.47;;;1.30;;
1404;SDS011;697;51.114;6.542;2022-10-16T02:50:16;2.20;;;0.77;;
1404;SDS011;697;51.114;6.542;2022-10-16T02:52:43;4.53;;;1.10;;
1404;SDS011;697;51.114;6.542;2022-10-16T02:55:10;2.00;;;0.90;;
1404;SDS011;697;51.114;6.542;2022-10-16T02:57:36;3.47;;;0.60;;
1404;SDS011;697;51.114;6.542;2022-10-16T03:00:05;1.13;;;0.70;;
1404;SDS011;697;51.114;6.542;2022-10-16T03:02:33;1.00;;;0.67;;
1404;SDS011;697;51.114;6.542;2022-10-16T03:05:01;0.93;;;0.60;;
1404;SDS011;697;51.114;6.542;2022-10-16T03:07:27;1.47;;;1.30;;
1404;SDS011;697;51.114;6.542;2022-10-16T03:09:54;3.37;;;1.30;;
1404;SDS011;697;51.114;6.542;2022-10-16T03:12:21;2.40;;;0.80;;
1404;SDS011;697;51.114;6.542;2022-10-16T03:14:48;1.80;;;0.60;;
1404;SDS011;697;51.114;6.542;2022-10-16T03:17:14;1.77;;;0.63;;
1404;SDS011;697;51.114;6.542;2022-10-16T03:19:42;0.90;;;0.60;;
1404;SDS011;697;51.114;6.542;2022-10-16T03:22:10;2.00;;;1.07;;
1404;SDS011;697;51.114;6.542;2022-10-16T03:24:37;2.80;;;1.00;;
1404;SDS011;697;51.114;6.542;2022-10-16T03:27:04;2.73;;;1.00;;
1404;SDS011;697;51.114;6.542;2022-10-16T03:29:30;1.33;;;0.70;;
1404;SDS011;697;51.114;6.542;2022-10-16T03:31:58;1.00;;;0.80;;
1404;SDS011;697;51.114;6.542;2022-10-16T03:34:24;2.83;;;0.87;;
1404;SDS011;697;51.114;6.542;2022-10-16T03:36:51;4.00;;;1.07;;
1404;SDS011;697;51.114;6.542;2022-10-16T03:39:20;2.73;;;0.60;;
1404;SDS011;697;51.114;6.542;2022-10-16T03:41:46;2.43;;;0.73;;
1404;SDS011;697;51.114;6.542;2022-10-16T03:44:13;7.53;;;1.00;;
1404;SDS011;697;51.114;6.542;2022-10-16T03:46:40;4.40;;;1.17;;
1404;SDS011;697;51.114;6.542;2022-10-16T03:49:07;6.43;;;1.20;;
1404;SDS011;697;51.114;6.542;2022-10-16T03:51:34;2.10;;;1.00;;
1404;SDS011;697;51.114;6.542;2022-10-16T03:54:00;2.00;;;1.13;;
1404;SDS011;697;51.114;6.542;2022-10-16T03:56:28;4.87;;;1.20;;
1404;SDS011;697;51.114;6.542;2022-10-16T03:58:55;3.70;;;1.00;;
1404;SDS011;697;51.114;6.542;2022-10-16T04:01:22;5.60;;;1.87;;
1404;SDS011;697;51.114;6.542;2022-10-16T04:03:49;1.43;;;1.03;;
1404;SDS011;697;51.114;6.542;2022-10-16T04:06:15;2.10;;;1.13;;
1404;SDS011;697;51.114;6.542;2022-10-16T04:08:42;1.63;;;1.10;;
1404;SDS011;697;51.114;6.542;2022-10-16T04:11:09;2.90;;;1.00;;
1404;SDS011;697;51.114;6.542;2022-10-16T04:13:38;3.00;;;0.93;;
1404;SDS011;697;51.114;6.542;2022-10-16T04:16:05;3.10;;;1.00;;
1404;SDS011;697;51.114;6.542;2022-10-16T04:18:32;3.87;;;1.10;;
1404;SDS011;697;51.114;6.542;2022-10-16T04:21:01;2.53;;;1.20;;
1404;SDS011;697;51.114;6.542;2022-10-16T04:23:28;5.53;;;1.33;;
1404;SDS011;697;51.114;6.542;2022-10-16T04:25:55;2.10;;;0.83;;
1404;SDS011;697;51.114;6.542;2022-10-16T04:28:22;4.00;;;1.20;;
1404;SDS011;697;51.114;6.542;2022-10-16T04:30:50;1.30;;;0.97;;
1404;SDS011;697;51.114;6.542;2022-10-16T04:33:17;1.87;;;1.13;;
1404;SDS011;697;51.114;6.542;2022-10-16T04:35:43;2.00;;;0.73;;
1404;SDS011;697;51.114;6.542;2022-10-16T04:38:10;1.27;;;1.03;;
1404;SDS011;697;51.114;6.542;2022-10-16T04:40:37;1.90;;;1.40;;
1404;SDS011;697;51.114;6.542;2022-10-16T04:43:04;1.53;;;1.00;;
1404;SDS011;697;51.114;6.542;2022-10-16T04:45:32;3.53;;;1.13;;
1404;SDS011;697;51.114;6.542;2022-10-16T04:48:00;2.30;;;1.30;;
1404;SDS011;697;51.114;6.542;2022-10-16T04:50:27;2.13;;;0.90;;
1404;SDS011;697;51.114;6.542;2022-10-16T04:52:54;1.33;;;0.93;;
1404;SDS011;697;51.114;6.542;2022-10-16T04:55:20;1.53;;;1.10;;
1404;SDS011;697;51.114;6.542;2022-10-16T04:57:47;4.30;;;1.07;;
1404;SDS011;697;51.114;6.542;2022-10-16T05:00:14;3.77;;;1.27;;
1404;SDS011;697;51.114;6.542;2022-10-16T05:02:41;2.80;;;0.80;;
1404;SDS011;697;51.114;6.542;2022-10-16T05:05:09;1.13;;;1.03;;
1404;SDS011;697;51.114;6.542;2022-10-16T05:07:36;2.67;;;1.10;;
1404;SDS011;697;51.114;6.542;2022-10-16T05:10:03;3.27;;;1.53;;
1404;SDS011;697;51.114;6.542;2022-10-16T05:12:31;1.47;;;1.07;;
1404;SDS011;697;51.114;6.542;2022-10-16T05:14:58;1.60;;;1.40;;
1404;SDS011;697;51.114;6.542;2022-10-16T05:17:24;4.00;;;1.40;;
1404;SDS011;697;51.114;6.542;2022-10-16T05:19:51;3.27;;;1.40;;
1404;SDS011;697;51.114;6.542;2022-10-16T05:22:19;2.60;;;1.43;;
1404;SDS011;697;51.114;6.542;2022-10-16T05:24:46;2.60;;;1.50;;
1404;SDS011;697;51.114;6.542;2022-10-16T05:27:13;4.23;;;2.10;;
1404;SDS011;697;51.114;6.542;2022-10-16T05:29:44;1.93;;;1.70;;
1404;SDS011;697;51.114;6.542;2022-10-16T05:32:11;4.30;;;1.50;;
1404;SDS011;697;51.114;6.542;2022-10-16T05:34:38;2.30;;;1.63;;
1404;SDS011;697;51.114;6.542;2022-10-16T05:37:05;1.50;;;1.30;;
1404;SDS011;697;51.114;6.542;2022-10-16T05:39:33;3.90;;;1.53;;
1404;SDS011;697;51.114;6.542;2022-10-16T05:42:01;2.40;;;1.70;;
1404;SDS011;697;51.114;6.542;2022-10-16T05:44:28;1.67;;;1.57;;
1404;SDS011;697;51.114;6.542;2022-10-16T05:46:55;9.50;;;2.87;;
1404;SDS011;697;51.114;6.542;2022-10-16T05:49:22;4.07;;;1.77;;
1404;SDS011;697;51.114;6.542;2022-10-16T05:51:49;2.93;;;1.70;;
1404;SDS011;697;51.114;6.542;2022-10-16T05:54:15;4.47;;;1.77;;
1404;SDS011;697;51.114;6.542;2022-10-16T05:56:43;2.63;;;2.20;;
1404;SDS011;697;51.114;6.542;2022-10-16T05:59:10;5.30;;;1.50;;
1404;SDS011;697;51.114;6.542;2022-10-16T06:01:37;4.53;;;1.50;;
1404;SDS011;697;51.114;6.542;2022-10-16T06:04:03;4.10;;;1.93;;
1404;SDS011;697;51.114;6.542;2022-10-16T06:06:30;4.30;;;1.73;;
1404;SDS011;697;51.114;6.542;2022-10-16T06:08:57;3.27;;;1.50;;
1404;SDS011;697;51.114;6.542;2022-10-16T06:11:25;3.30;;;1.60;;
1404;SDS011;697;51.114;6.542;2022-10-16T06:13:56;7.60;;;2.03;;
1404;SDS011;697;51.114;6.542;2022-10-16T06:16:25;4.60;;;1.70;;
1404;SDS011;697;51.114;6.542;2022-10-16T06:18:53;3.50;;;1.87;;
1404;SDS011;697;51.114;6.542;2022-10-16T06:21:21;2.93;;;1.87;;
1404;SDS011;697;51.114;6.542;2022-10-16T06:23:49;3.87;;;1.67;;
1404;SDS011;697;51.114;6.542;2022-10-16T06:26:17;2.50;;;1.83;;
1404;SDS011;697;51.114;6.542;2022-10-16T06:28:45;2.40;;;1.50;;
1404;SDS011;697;51.114;6.542;2022-10-16T06:31:14;3.87;;;1.90;;
1404;SDS011;697;51.114;6.542;2022-10-16T06:33:42;3.50;;;1.30;;
1404;SDS011;697;51.114;6.542;2022-10-16T06:36:11;2.60;;;1.30;;
1404;SDS011;697;51.114;6.542;2022-10-16T06:38:39;1.20;;;1.10;;
1404;SDS011;697;51.114;6.542;2022-10-16T06:41:07;2.90;;;1.43;;
1404;SDS011;697;51.114;6.542;2022-10-16T06:43:35;6.30;;;1.60;;
1404;SDS011;697;51.114;6.542;2022-10-16T06:46:02;3.50;;;1.97;;
1404;SDS011;697;51.114;6.542;2022-10-16T06:48:32;8.50;;;1.90;;
1404;SDS011;697;51.114;6.542;2022-10-16T06:50:58;2.53;;;1.60;;
1404;SDS011;697;51.114;6.542;2022-10-16T06:53:27;6.43;;;1.93;;
1404;SDS011;697;51.114;6.542;2022-10-16T06:55:55;2.27;;;1.70;;
1404;SDS011;697;51.114;6.542;2022-10-16T06:58:22;5.13;;;2.30;;
1404;SDS011;697;51.114;6.542;2022-10-16T07:00:54;2.60;;;1.40;;
1404;SDS011;697;51.114;6.542;2022-10-16T07:03:22;1.53;;;1.43;;
1404;SDS011;697;51.114;6.542;2022-10-16T07:05:50;1.67;;;1.40;;
1404;SDS011;697;51.114;6.542;2022-10-16T07:08:17;1.77;;;1.10;;
1404;SDS011;697;51.114;6.542;2022-10-16T07:10:43;1.83;;;1.17;;
1404;SDS011;697;51.114;6.542;2022-10-16T07:13:10;1.60;;;1.50;;
1404;SDS011;697;51.114;6.542;2022-10-16T07:15:38;3.77;;;1.47;;
1404;SDS011;697;51.114;6.542;2022-10-16T07:18:05;4.37;;;1.60;;
1404;SDS011;697;51.114;6.542;2022-10-16T07:20:32;2.00;;;1.80;;
1404;SDS011;697;51.114;6.542;2022-10-16T07:23:00;2.63;;;2.00;;
1404;SDS011;697;51.114;6.542;2022-10-16T07:25:27;3.83;;;1.87;;
1404;SDS011;697;51.114;6.542;2022-10-16T07:27:53;3.07;;;1.60;;
1404;SDS011;697;51.114;6.542;2022-10-16T07:30:22;2.07;;;1.57;;
1404;SDS011;697;51.114;6.542;2022-10-16T07:32:49;5.63;;;2.00;;
1404;SDS011;697;51.114;6.542;2022-10-16T07:35:15;2.40;;;1.40;;
1404;SDS011;697;51.114;6.542;2022-10-16T07:37:44;2.70;;;1.60;;
1404;SDS011;697;51.114;6.542;2022-10-16T07:40:12;2.87;;;1.97;;
1404;SDS011;697;51.114;6.542;2022-10-16T07:42:39;2.13;;;1.63;;
1404;SDS011;697;51.114;6.542;2022-10-16T07:45:06;3.17;;;1.77;;
1404;SDS011;697;51.114;6.542;2022-10-16T07:47:33;1.97;;;1.77;;
1404;SDS011;697;51.114;6.542;2022-10-16T07:50:00;4.40;;;1.90;;
1404;SDS011;697;51.114;6.542;2022-10-16T07:52:27;2.33;;;1.40;;
1404;SDS011;697;51.114;6.542;2022-10-16T07:54:53;3.23;;;1.83;;
1404;SDS011;697;51.114;6.542;2022-10-16T07:57:21;2.13;;;1.40;;
1404;SDS011;697;51.114;6.542;2022-10-16T07:59:48;4.77;;;2.13;;
1404;SDS011;697;51.114;6.542;2022-10-16T08:02:15;5.50;;;2.07;;
1404;SDS011;697;51.114;6.542;2022-10-16T08:04:41;2.47;;;1.37;;
1404;SDS011;697;51.114;6.542;2022-10-16T08:07:08;7.10;;;1.80;;
1404;SDS011;697;51.114;6.542;2022-10-16T08:09:35;3.73;;;1.60;;
1404;SDS011;697;51.114;6.542;2022-10-16T08:12:03;6.90;;;1.90;;
1404;SDS011;697;51.114;6.542;2022-10-16T08:14:31;3.93;;;1.40;;
1404;SDS011;697;51.114;6.542;2022-10-16T08:16:59;5.50;;;1.63;;
1404;SDS011;697;51.114;6.542;2022-10-16T08:19:27;2.50;;;1.30;;
1404;SDS011;697;51.114;6.542;2022-10-16T08:21:53;5.23;;;2.10;;
1404;SDS011;697;51.114;6.542;2022-10-16T08:24:20;4.67;;;1.13;;
1404;SDS011;697;51.114;6.542;2022-10-16T08:26:47;5.33;;;1.50;;
1404;SDS011;697;51.114;6.542;2022-10-16T08:29:13;2.87;;;1.20;;
1404;SDS011;697;51.114;6.542;2022-10-16T08:31:42;3.90;;;1.43;;
1404;SDS011;697;51.114;6.542;2022-10-16T08:34:08;3.30;;;1.33;;
1404;SDS011;697;51.114;6.542;2022-10-16T08:36:35;6.30;;;1.50;;
1404;SDS011;697;51.114;6.542;2022-10-16T08:39:02;2.10;;;1.00;;
1404;SDS011;697;51.114;6.542;2022-10-16T08:44:38;4.17;;;1.20;;
1404;SDS011;697;51.114;6.542;2022-10-16T08:47:35;1.93;;;0.83;;
1404;SDS011;697;51.114;6.542;2022-10-16T08:50:11;2.30;;;0.90;;
1404;SDS011;697;51.114;6.542;2022-10-16T09:33:08;3.23;;;0.93;;
1404;SDS011;697;51.114;6.542;2022-10-16T09:49:33;1.60;;;0.70;;
1404;SDS011;697;51.114;6.542;2022-10-16T09:52:03;5.60;;;0.70;;
1404;SDS011;697;51.114;6.542;2022-10-16T09:54:30;3.23;;;0.60;;
1404;SDS011;697;51.114;6.542;2022-10-16T09:57:04;1.17;;;0.73;;
1404;SDS011;697;51.114;6.542;2022-10-16T09:59:31;1.30;;;0.80;;
1404;SDS011;697;51.114;6.542;2022-10-16T10:02:01;2.63;;;1.00;;
1404;SDS011;697;51.114;6.542;2022-10-16T10:04:38;1.20;;;0.73;;
1404;SDS011;697;51.114;6.542;2022-10-16T10:07:07;2.67;;;0.70;;
1404;SDS011;697;51.114;6.542;2022-10-16T10:09:44;2.13;;;0.87;;
1404;SDS011;697;51.114;6.542;2022-10-16T10:12:19;3.07;;;1.00;;
1404;SDS011;697;51.114;6.542;2022-10-16T10:14:48;1.30;;;0.60;;
1404;SDS011;697;51.114;6.542;2022-10-16T10:17:17;3.00;;;0.50;;
1404;SDS011;697;51.114;6.542;2022-10-16T10:19:50;10.10;;;0.80;;
1404;SDS011;697;51.114;6.542;2022-10-16T10:22:21;1.20;;;0.80;;
1404;SDS011;697;51.114;6.542;2022-10-16T10:25:18;1.50;;;0.83;;
1404;SDS011;697;51.114;6.542;2022-10-16T10:28:09;1.63;;;0.80;;
1404;SDS011;697;51.114;6.542;2022-10-16T10:31:01;3.40;;;1.30;;
1404;SDS011;697;51.114;6.542;2022-10-16T10:33:37;1.27;;;0.70;;
1404;SDS011;697;51.114;6.542;2022-10-16T10:36:14;1.23;;;0.67;;
1404;SDS011;697;51.114;6.542;2022-10-16T10:38:49;2.27;;;0.63;;
1404;SDS011;697;51.114;6.542;2022-10-16T10:41:24;1.50;;;0.60;;
1404;SDS011;697;51.114;6.542;2022-10-16T10:44:08;4.10;;;1.80;;
1404;SDS011;697;51.114;6.542;2022-10-16T10:46:41;2.40;;;1.10;;
1404;SDS011;697;51.114;6.542;2022-10-16T10:49:25;1.87;;;0.70;;
1404;SDS011;697;51.114;6.542;2022-10-16T10:52:08;0.90;;;0.70;;
1404;SDS011;697;51.114;6.542;2022-10-16T10:54:53;1.40;;;0.60;;
1404;SDS011;697;51.114;6.542;2022-10-16T10:57:25;1.33;;;0.70;;
1404;SDS011;697;51.114;6.542;2022-10-16T11:00:00;0.80;;;0.50;;
1404;SDS011;697;51.114;6.542;2022-10-16T11:02:35;2.23;;;0.63;;
1404;SDS011;697;51.114;6.542;2022-10-16T11:08:10;2.10;;;0.80;;
1404;SDS011;697;51.114;6.542;2022-10-16T11:10:46;2.43;;;0.77;;
1404;SDS011;697;51.114;6.542;2022-10-16T11:13:26;2.63;;;0.87;;
1404;SDS011;697;51.114;6.542;2022-10-16T11:16:00;3.03;;;0.63;;
1404;SDS011;697;51.114;6.542;2022-10-16T11:18:38;2.70;;;0.60;;
1404;SDS011;697;51.114;6.542;2022-10-16T11:21:11;1.83;;;0.80;;
1404;SDS011;697;51.114;6.542;2022-10-16T11:23:42;1.90;;;0.70;;
1404;SDS011;697;51.114;6.542;2022-10-16T11:26:18;2.80;;;0.70;;
1404;SDS011;697;51.114;6.542;2022-10-16T11:28:50;2.37;;;0.73;;
1404;SDS011;697;51.114;6.542;2022-10-16T11:31:22;3.13;;;1.00;;
1404;SDS011;697;51.114;6.542;2022-10-16T11:33:58;6.17;;;0.80;;
1404;SDS011;697;51.114;6.542;2022-10-16T11:36:31;1.07;;;0.67;;
1404;SDS011;697;51.114;6.542;2022-10-16T11:39:03;1.77;;;0.60;;
1404;SDS011;697;51.114;6.542;2022-10-16T11:41:39;4.73;;;0.90;;
1404;SDS011;697;51.114;6.542;2022-10-16T11:44:15;2.90;;;0.87;;
1404;SDS011;697;51.114;6.542;2022-10-16T11:46:48;2.57;;;0.90;;
1404;SDS011;697;51.114;6.542;2022-10-16T11:49:19;2.33;;;0.70;;
1404;SDS011;697;51.114;6.542;2022-10-16T11:51:51;0.83;;;0.53;;
1404;SDS011;697;51.114;6.542;2022-10-16T11:54:28;2.60;;;1.03;;
1404;SDS011;697;51.114;6.542;2022-10-16T11:57:02;3.40;;;0.83;;
1404;SDS011;697;51.114;6.542;2022-10-16T11:59:36;1.23;;;0.60;;
1404;SDS011;697;51.114;6.542;2022-10-16T12:02:25;2.23;;;0.90;;
1404;SDS011;697;51.114;6.542;2022-10-16T12:05:02;1.67;;;0.70;;
1404;SDS011;697;51.114;6.542;2022-10-16T12:07:42;2.00;;;0.60;;
1404;SDS011;697;51.114;6.542;2022-10-16T12:10:21;3.00;;;0.60;;
1404;SDS011;697;51.114;6.542;2022-10-16T12:12:49;1.33;;;0.50;;
1404;SDS011;697;51.114;6.542;2022-10-16T12:15:21;2.20;;;0.90;;
1404;SDS011;697;51.114;6.542;2022-10-16T12:17:49;1.70;;;0.67;;
1404;SDS011;697;51.114;6.542;2022-10-16T12:20:24;2.30;;;0.60;;
1404;SDS011;697;51.114;6.542;2022-10-16T12:22:55;2.70;;;0.70;;
1404;SDS011;697;51.114;6.542;2022-10-16T12:25:26;1.87;;;0.90;;
1404;SDS011;697;51.114;6.542;2022-10-16T12:27:55;1.00;;;0.43;;
1404;SDS011;697;51.114;6.542;2022-10-16T12:30:24;1.97;;;0.80;;
1404;SDS011;697;51.114;6.542;2022-10-16T12:32:53;1.50;;;0.80;;
1404;SDS011;697;51.114;6.542;2022-10-16T12:35:21;1.53;;;0.80;;
1404;SDS011;697;51.114;6.542;2022-10-16T12:37:51;2.13;;;0.53;;
1404;SDS011;697;51.114;6.542;2022-10-16T12:40:29;2.90;;;1.07;;
1404;SDS011;697;51.114;6.542;2022-10-16T12:42:58;4.73;;;0.70;;
1404;SDS011;697;51.114;6.542;2022-10-16T12:45:26;2.30;;;0.70;;
1404;SDS011;697;51.114;6.542;2022-10-16T12:47:56;1.97;;;0.60;;
1404;SDS011;697;51.114;6.542;2022-10-16T12:50:28;1.83;;;1.00;;
1404;SDS011;697;51.114;6.542;2022-10-16T12:52:59;1.43;;;0.50;;
1404;SDS011;697;51.114;6.542;2022-10-16T12:55:30;3.67;;;0.70;;
1404;SDS011;697;51.114;6.542;2022-10-16T12:58:11;2.00;;;0.60;;
1404;SDS011;697;51.114;6.542;2022-10-16T13:00:48;1.30;;;0.63;;
1404;SDS011;697;51.114;6.542;2022-10-16T13:03:44;1.13;;;0.40;;
1404;SDS011;697;51.114;6.542;2022-10-16T13:06:27;2.37;;;0.73;;
1404;SDS011;697;51.114;6.542;2022-10-16T13:09:21;1.47;;;0.50;;
1404;SDS011;697;51.114;6.542;2022-10-16T13:12:09;2.40;;;0.50;;
1404;SDS011;697;51.114;6.542;2022-10-16T13:14:59;0.90;;;0.40;;
1404;SDS011;697;51.114;6.542;2022-10-16T13:17:37;0.63;;;0.50;;
1404;SDS011;697;51.114;6.542;2022-10-16T13:20:12;0.90;;;0.47;;
1404;SDS011;697;51.114;6.542;2022-10-16T13:22:49;2.20;;;0.70;;
1404;SDS011;697;51.114;6.542;2022-10-16T13:25:23;4.10;;;0.70;;
1404;SDS011;697;51.114;6.542;2022-10-16T13:28:01;5.77;;;0.80;;
1404;SDS011;697;51.114;6.542;2022-10-16T13:30:30;1.47;;;0.60;;
1404;SDS011;697;51.114;6.542;2022-10-16T13:33:00;1.07;;;0.60;;
1404;SDS011;697;51.114;6.542;2022-10-16T13:35:29;2.05;;;0.60;;
1404;SDS011;697;51.114;6.542;2022-10-16T13:38:04;3.00;;;0.97;;
1404;SDS011;697;51.114;6.542;2022-10-16T13:40:47;3.53;;;0.80;;
1404;SDS011;697;51.114;6.542;2022-10-16T13:43:21;2.73;;;0.80;;
1404;SDS011;697;51.114;6.542;2022-10-16T13:45:54;1.67;;;0.77;;
1404;SDS011;697;51.114;6.542;2022-10-16T13:48:23;3.90;;;0.50;;
1404;SDS011;697;51.114;6.542;2022-10-16T13:50:59;2.67;;;0.70;;
1404;SDS011;697;51.114;6.542;2022-10-16T13:53:29;1.13;;;0.60;;
1404;SDS011;697;51.114;6.542;2022-10-16T13:55:57;1.43;;;0.70;;
1404;SDS011;697;51.114;6.542;2022-10-16T13:58:26;0.70;;;0.50;;
1404;SDS011;697;51.114;6.542;2022-10-16T14:00:54;0.83;;;0.70;;
1404;SDS011;697;51.114;6.542;2022-10-16T14:03:22;1.80;;;0.70;;
1404;SDS011;697;51.114;6.542;2022-10-16T14:05:51;1.10;;;0.60;;
1404;SDS011;697;51.114;6.542;2022-10-16T14:08:19;1.50;;;0.40;;
1404;SDS011;697;51.114;6.542;2022-10-16T14:10:47;1.60;;;0.60;;
1404;SDS011;697;51.114;6.542;2022-10-16T14:13:16;1.07;;;0.37;;
1404;SDS011;697;51.114;6.542;2022-10-16T14:15:47;3.93;;;0.90;;
1404;SDS011;697;51.114;6.542;2022-10-16T14:18:19;2.53;;;0.77;;
1404;SDS011;697;51.114;6.542;2022-10-16T14:20:48;1.23;;;0.83;;
1404;SDS011;697;51.114;6.542;2022-10-16T14:23:19;3.07;;;0.80;;
1404;SDS011;697;51.114;6.542;2022-10-16T14:25:51;3.60;;;0.70;;
1404;SDS011;697;51.114;6.542;2022-10-16T14:28:18;2.40;;;0.83;;
1404;SDS011;697;51.114;6.542;2022-10-16T14:30:52;2.13;;;0.60;;
1404;SDS011;697;51.114;6.542;2022-10-16T14:33:21;2.40;;;0.60;;
1404;SDS011;697;51.114;6.542;2022-10-16T14:35:59;3.97;;;0.70;;
1404;SDS011;697;51.114;6.542;2022-10-16T14:38:28;1.07;;;0.43;;
1404;SDS011;697;51.114;6.542;2022-10-16T14:40:57;4.93;;;0.90;;
1404;SDS011;697;51.114;6.542;2022-10-16T14:43:26;0.90;;;0.43;;
1404;SDS011;697;51.114;6.542;2022-10-16T14:45:59;1.00;;;0.43;;
1404;SDS011;697;51.114;6.542;2022-10-16T14:48:29;1.73;;;0.63;;
1404;SDS011;697;51.114;6.542;2022-10-16T14:50:56;2.83;;;0.67;;
1404;SDS011;697;51.114;6.542;2022-10-16T14:53:23;1.83;;;0.70;;
1404;SDS011;697;51.114;6.542;2022-10-16T14:55:50;4.80;;;1.00;;
1404;SDS011;697;51.114;6.542;2022-10-16T14:58:18;5.37;;;0.90;;
1404;SDS011;697;51.114;6.542;2022-10-16T15:00:47;4.13;;;0.60;;
1404;SDS011;697;51.114;6.542;2022-10-16T15:03:15;3.67;;;0.63;;
1404;SDS011;697;51.114;6.542;2022-10-16T15:05:42;4.47;;;1.30;;
1404;SDS011;697;51.114;6.542;2022-10-16T15:08:09;1.57;;;0.80;;
1404;SDS011;697;51.114;6.542;2022-10-16T15:10:38;2.00;;;0.60;;
1404;SDS011;697;51.114;6.542;2022-10-16T15:13:06;3.03;;;0.70;;
1404;SDS011;697;51.114;6.542;2022-10-16T15:15:35;5.73;;;0.73;;
1404;SDS011;697;51.114;6.542;2022-10-16T15:18:03;2.80;;;1.00;;
1404;SDS011;697;51.114;6.542;2022-10-16T15:20:33;4.17;;;0.70;;
1404;SDS011;697;51.114;6.542;2022-10-16T15:23:00;6.13;;;1.20;;
1404;SDS011;697;51.114;6.542;2022-10-16T15:25:33;3.17;;;0.87;;
1404;SDS011;697;51.114;6.542;2022-10-16T15:28:02;3.20;;;0.80;;
1404;SDS011;697;51.114;6.542;2022-10-16T15:30:29;2.83;;;1.00;;
1404;SDS011;697;51.114;6.542;2022-10-16T15:32:56;2.70;;;0.73;;
1404;SDS011;697;51.114;6.542;2022-10-16T15:35:23;1.63;;;0.70;;
1404;SDS011;697;51.114;6.542;2022-10-16T15:37:51;0.97;;;0.97;;
1404;SDS011;697;51.114;6.542;2022-10-16T15:40:18;0.90;;;0.80;;
1404;SDS011;697;51.114;6.542;2022-10-16T15:42:47;2.30;;;1.30;;
1404;SDS011;697;51.114;6.542;2022-10-16T15:45:15;2.13;;;1.30;;
1404;SDS011;697;51.114;6.542;2022-10-16T15:47:44;3.83;;;1.43;;
1404;SDS011;697;51.114;6.542;2022-10-16T15:50:11;2.20;;;1.53;;
1404;SDS011;697;51.114;6.542;2022-10-16T15:52:38;5.93;;;1.10;;
1404;SDS011;697;51.114;6.542;2022-10-16T15:55:08;2.70;;;1.00;;
1404;SDS011;697;51.114;6.542;2022-10-16T15:57:35;1.80;;;1.00;;
1404;SDS011;697;51.114;6.542;2022-10-16T16:00:06;2.17;;;1.40;;
1404;SDS011;697;51.114;6.542;2022-10-16T16:02:34;3.17;;;1.40;;
1404;SDS011;697;51.114;6.542;2022-10-16T16:05:01;1.57;;;0.93;;
1404;SDS011;697;51.114;6.542;2022-10-16T16:07:28;1.53;;;1.10;;
1404;SDS011;697;51.114;6.542;2022-10-16T16:09:57;1.50;;;1.07;;
1404;SDS011;697;51.114;6.542;2022-10-16T16:12:27;2.00;;;0.90;;
1404;SDS011;697;51.114;6.542;2022-10-16T16:14:54;2.77;;;1.00;;
1404;SDS011;697;51.114;6.542;2022-10-16T16:17:20;3.00;;;1.30;;
1404;SDS011;697;51.114;6.542;2022-10-16T16:19:47;4.20;;;1.80;;
1404;SDS011;697;51.114;6.542;2022-10-16T16:22:14;2.43;;;1.67;;
1404;SDS011;697;51.114;6.542;2022-10-16T16:24:40;4.30;;;2.40;;
1404;SDS011;697;51.114;6.542;2022-10-16T16:27:09;2.83;;;2.40;;
1404;SDS011;697;51.114;6.542;2022-10-16T16:29:37;4.43;;;2.40;;
1404;SDS011;697;51.114;6.542;2022-10-16T16:32:04;4.00;;;2.43;;
1404;SDS011;697;51.114;6.542;2022-10-16T16:34:31;2.53;;;2.33;;
1404;SDS011;697;51.114;6.542;2022-10-16T16:36:57;3.80;;;2.27;;
1404;SDS011;697;51.114;6.542;2022-10-16T16:39:24;6.43;;;2.80;;
1404;SDS011;697;51.114;6.542;2022-10-16T16:41:51;4.70;;;2.17;;
1404;SDS011;697;51.114;6.542;2022-10-16T16:44:18;2.87;;;2.10;;
1404;SDS011;697;51.114;6.542;2022-10-16T16:46:46;5.93;;;2.57;;